Charlottetown, Canada
Current Conditions -  °F | °C
As of 1:00 PM on Tuesday 21 Oct 2014 (Local Time) from CYYG Reporting Station
Few Clouds Few Clouds  
Wind Chill: 10°   Ceiling: Unl
Heat Index: 10°   Visibility: 15mi
Dew Point:   Wind: 10mph
Humidity: 50%   Direction: 260°W
Pressure: 30.13"   Gusts: NA
Location:  46.24°N, 63.13°W
Report Text: CYYG 211600Z 26009KT 240V300 15SM FEW036 FEW280 10/M00 A3013 RMK CF1CI2 CF TR SLP204
Loading
Personal Weather Stations






























Interactive Weather Map
Tropical Storm Tracking
New forecast layout! Learn more

10-Day Weather Forecast

Advertisements
Track Severe Weather on mobile